createdAt,value
2018-12-15T00:02:18.228Z,2.70
2018-12-15T00:04:49.382Z,2.70
2018-12-15T00:07:21.022Z,2.70
2018-12-15T00:09:50.176Z,2.80
2018-12-15T00:12:19.344Z,2.70
2018-12-15T00:14:48.728Z,2.70
2018-12-15T00:17:17.885Z,2.70
2018-12-15T00:19:47.019Z,2.70
2018-12-15T00:22:16.321Z,2.80
2018-12-15T00:24:45.463Z,2.80
2018-12-15T00:27:14.656Z,2.80
2018-12-15T00:29:43.808Z,2.80
2018-12-15T00:32:12.941Z,2.80
2018-12-15T00:34:42.154Z,2.80
2018-12-15T00:37:11.291Z,2.80
2018-12-15T00:39:40.448Z,2.80
2018-12-15T00:42:09.622Z,2.80
2018-12-15T00:44:38.769Z,2.80
2018-12-15T00:47:13.590Z,2.70
2018-12-15T00:49:39.096Z,2.80
2018-12-15T00:52:08.330Z,2.80
2018-12-15T00:54:37.444Z,2.80
2018-12-15T00:57:06.604Z,2.90
2018-12-15T00:59:35.736Z,2.90
2018-12-15T01:02:05.021Z,2.90
2018-12-15T01:04:34.104Z,2.80
2018-12-15T01:07:03.424Z,2.80
2018-12-15T01:09:32.590Z,2.90
2018-12-15T01:12:01.703Z,2.80
2018-12-15T01:14:30.960Z,2.80
2018-12-15T01:17:00.080Z,2.80
2018-12-15T01:19:29.222Z,2.90
2018-12-15T01:21:58.313Z,2.90
2018-12-15T01:24:27.634Z,2.90
2018-12-15T01:26:56.770Z,3.00
2018-12-15T01:29:25.895Z,2.90
2018-12-15T01:31:55.090Z,2.90
2018-12-15T01:34:24.343Z,2.90
2018-12-15T01:36:53.460Z,2.90
2018-12-15T01:39:22.575Z,2.80
2018-12-15T01:41:51.741Z,2.90
2018-12-15T01:44:20.881Z,2.90
2018-12-15T01:46:50.026Z,2.90
2018-12-15T01:49:19.171Z,2.80
2018-12-15T01:51:48.283Z,2.80
2018-12-15T01:54:17.461Z,2.80
2018-12-15T01:56:47.521Z,2.80
2018-12-15T01:59:17.777Z,2.70
2018-12-15T02:01:46.947Z,2.70
2018-12-15T02:04:16.103Z,2.70
2018-12-15T02:06:45.178Z,2.70
2018-12-15T02:09:14.365Z,2.70
2018-12-15T02:11:44.591Z,2.70
2018-12-15T02:14:14.723Z,2.70
2018-12-15T02:16:43.863Z,2.70
2018-12-15T02:19:12.988Z,2.70
2018-12-15T02:21:42.097Z,2.70
2018-12-15T02:24:11.207Z,2.70
2018-12-15T02:26:40.487Z,2.70
2018-12-15T02:29:11.678Z,2.70
2018-12-15T02:31:40.835Z,2.70
2018-12-15T02:34:09.984Z,2.70
2018-12-15T02:36:39.467Z,2.70
2018-12-15T02:39:08.607Z,2.80
2018-12-15T02:41:47.040Z,2.80
2018-12-15T02:44:10.873Z,2.90
2018-12-15T02:46:39.995Z,2.90
2018-12-15T02:49:09.107Z,2.80
2018-12-15T02:51:38.284Z,2.80
2018-12-15T02:54:07.429Z,2.80
2018-12-15T02:56:36.552Z,2.90
2018-12-15T02:59:05.676Z,2.90
2018-12-15T03:01:34.797Z,2.90
2018-12-15T03:04:03.947Z,2.90
2018-12-15T03:06:33.064Z,2.80
2018-12-15T03:09:02.234Z,2.80
2018-12-15T03:11:33.415Z,2.80
2018-12-15T03:14:02.547Z,2.80
2018-12-15T03:16:31.679Z,2.90
2018-12-15T03:19:12.963Z,2.80
2018-12-15T03:21:42.099Z,2.80
2018-12-15T03:24:11.271Z,2.80
2018-12-15T03:26:40.579Z,2.80
2018-12-15T03:29:09.699Z,2.80
2018-12-15T03:31:38.840Z,2.80
2018-12-15T03:34:07.993Z,2.80
2018-12-15T03:36:37.190Z,2.80
2018-12-15T03:39:06.562Z,2.70
2018-12-15T03:41:36.917Z,2.70
2018-12-15T03:44:06.052Z,2.70
2018-12-15T03:46:35.133Z,2.70
2018-12-15T03:49:04.433Z,2.60
2018-12-15T03:51:33.573Z,2.60
2018-12-15T03:54:02.781Z,2.60
2018-12-15T03:56:31.997Z,2.60
2018-12-15T03:59:01.151Z,2.60
2018-12-15T04:01:30.273Z,2.50
2018-12-15T04:03:59.391Z,2.50
2018-12-15T04:06:28.488Z,2.60
2018-12-15T04:08:57.598Z,2.60
2018-12-15T04:11:26.899Z,2.50
2018-12-15T04:13:56.036Z,2.60
2018-12-15T04:16:25.120Z,2.60
2018-12-15T04:18:54.282Z,2.60
2018-12-15T04:21:23.439Z,2.60
2018-12-15T04:23:52.558Z,2.60
2018-12-15T04:26:21.692Z,2.60
2018-12-15T04:28:50.984Z,2.60
2018-12-15T04:31:20.104Z,2.60
2018-12-15T04:33:49.282Z,2.60
2018-12-15T04:36:19.369Z,2.60
2018-12-15T04:38:48.700Z,2.60
2018-12-15T04:41:17.797Z,2.80
2018-12-15T04:43:47.405Z,2.70
2018-12-15T04:46:16.539Z,2.80
2018-12-15T04:48:45.696Z,2.80
2018-12-15T04:51:14.845Z,2.80
2018-12-15T04:53:44.032Z,2.70
2018-12-15T04:56:13.208Z,2.70
2018-12-15T04:58:42.361Z,2.70
2018-12-15T05:01:11.487Z,2.60
2018-12-15T05:03:40.641Z,2.60
2018-12-15T05:06:09.892Z,2.60
2018-12-15T05:08:39.146Z,2.70
2018-12-15T05:11:08.271Z,2.60
2018-12-15T05:13:37.435Z,2.70
2018-12-15T05:16:06.542Z,2.60
2018-12-15T05:18:35.992Z,2.70
2018-12-15T05:21:05.108Z,2.60
2018-12-15T05:23:34.235Z,2.60
2018-12-15T05:26:03.400Z,2.60
2018-12-15T05:28:32.520Z,2.70
2018-12-15T05:31:01.788Z,2.60
2018-12-15T05:33:30.881Z,2.70
2018-12-15T05:36:00.688Z,2.70
2018-12-15T05:38:29.811Z,2.70
2018-12-15T05:40:58.976Z,2.70
2018-12-15T05:43:28.261Z,2.60
2018-12-15T05:45:57.384Z,2.60
2018-12-15T05:48:26.548Z,2.70
2018-12-15T05:50:55.780Z,2.70
2018-12-15T05:53:24.905Z,2.70
2018-12-15T05:55:54.068Z,2.70
2018-12-15T05:58:23.251Z,2.70
2018-12-15T06:00:52.404Z,2.70
2018-12-15T06:03:21.545Z,2.70
2018-12-15T06:05:50.754Z,2.70
2018-12-15T06:08:19.909Z,2.80
2018-12-15T06:10:49.046Z,2.70
2018-12-15T06:13:18.177Z,2.60
2018-12-15T06:15:47.301Z,2.60
2018-12-15T06:18:16.445Z,2.70
2018-12-15T06:20:45.573Z,2.70
2018-12-15T06:23:14.708Z,2.80
2018-12-15T06:25:43.837Z,2.90
2018-12-15T06:28:13.148Z,2.90
2018-12-15T06:30:42.480Z,2.90
2018-12-15T06:33:11.834Z,2.80
2018-12-15T06:35:41.018Z,2.80
2018-12-15T06:38:10.203Z,2.70
2018-12-15T06:40:39.321Z,2.70
2018-12-15T06:43:08.450Z,2.70
2018-12-15T06:45:37.614Z,2.80
2018-12-15T06:48:06.756Z,2.90
2018-12-15T06:50:35.886Z,2.80
2018-12-15T06:53:05.040Z,2.80
2018-12-15T06:55:34.172Z,2.80
2018-12-15T06:59:42.412Z,2.80
2018-12-15T07:02:11.604Z,2.80
2018-12-15T07:04:40.763Z,2.70
2018-12-15T07:07:09.872Z,2.70
2018-12-15T07:09:39.006Z,2.70
2018-12-15T07:12:08.191Z,2.80
2018-12-15T07:14:37.337Z,2.80
2018-12-15T07:17:06.524Z,2.70
2018-12-15T07:19:35.736Z,2.70
2018-12-15T07:22:04.900Z,2.60
2018-12-15T07:24:34.126Z,2.60
2018-12-15T07:27:03.249Z,2.60
2018-12-15T07:29:32.356Z,2.70
2018-12-15T07:32:01.520Z,2.70
2018-12-15T07:34:32.808Z,2.70
2018-12-15T07:37:01.912Z,2.80
2018-12-15T07:39:31.020Z,2.80
2018-12-15T07:42:00.181Z,2.90
2018-12-15T07:44:29.352Z,2.90
2018-12-15T07:46:58.547Z,2.80
2018-12-15T07:49:27.712Z,2.80
2018-12-15T07:51:56.824Z,2.70
2018-12-15T07:54:26.012Z,2.80
2018-12-15T07:56:55.188Z,2.70
2018-12-15T07:59:24.324Z,2.80
2018-12-15T08:01:53.856Z,2.80
2018-12-15T08:04:22.971Z,2.80
2018-12-15T08:06:52.732Z,2.90
2018-12-15T08:09:21.884Z,3.00
2018-12-15T08:11:56.436Z,3.00
2018-12-15T08:14:25.928Z,3.00
2018-12-15T08:16:55.112Z,3.10
2018-12-15T08:19:24.234Z,3.10
2018-12-15T08:21:53.356Z,3.10
2018-12-15T08:24:22.786Z,3.10
2018-12-15T08:26:51.956Z,3.20
2018-12-15T08:29:21.130Z,3.30
2018-12-15T08:31:50.274Z,3.30
2018-12-15T08:34:19.536Z,3.20
2018-12-15T08:36:48.899Z,3.30
2018-12-15T08:39:18.104Z,3.30
2018-12-15T08:41:47.248Z,3.30
2018-12-15T08:44:17.351Z,3.30
2018-12-15T08:46:46.615Z,3.30
2018-12-15T08:49:15.759Z,3.40
2018-12-15T08:51:44.904Z,3.50
2018-12-15T08:54:14.055Z,3.50
2018-12-15T08:56:43.278Z,3.60
2018-12-15T08:59:12.419Z,3.60
2018-12-15T09:01:41.616Z,3.70
2018-12-15T09:04:10.765Z,3.80
2018-12-15T09:06:39.901Z,3.90
2018-12-15T09:09:08.994Z,4.10
2018-12-15T09:11:38.286Z,4.30
2018-12-15T09:14:07.436Z,4.40
2018-12-15T09:16:36.551Z,4.50
2018-12-15T09:19:11.062Z,4.50
2018-12-15T09:21:37.577Z,4.50
2018-12-15T09:24:06.757Z,4.60
2018-12-15T09:26:35.937Z,4.70
2018-12-15T09:29:05.127Z,4.90
2018-12-15T09:31:34.265Z,5.00
2018-12-15T09:34:03.445Z,4.80
2018-12-15T09:36:32.867Z,4.90
2018-12-15T09:39:02.205Z,4.90
2018-12-15T09:41:33.371Z,4.90
2018-12-15T09:44:02.570Z,4.90
2018-12-15T09:46:31.756Z,4.80
2018-12-15T09:49:00.915Z,4.60
2018-12-15T09:51:30.066Z,4.50
2018-12-15T09:53:59.167Z,4.40
2018-12-15T09:56:28.302Z,4.40
2018-12-15T09:58:57.424Z,4.40
2018-12-15T10:01:26.589Z,4.40
2018-12-15T10:03:55.798Z,4.40
2018-12-15T10:06:24.953Z,4.50
2018-12-15T10:08:54.070Z,4.50
2018-12-15T10:11:23.218Z,4.40
2018-12-15T10:13:53.413Z,4.40
2018-12-15T10:16:22.577Z,4.30
2018-12-15T10:18:51.953Z,4.20
2018-12-15T10:21:21.110Z,4.20
2018-12-15T10:23:50.251Z,4.20
2018-12-15T10:26:19.392Z,4.20
2018-12-15T10:28:48.649Z,4.20
2018-12-15T10:32:25.018Z,4.20
2018-12-15T10:34:54.121Z,4.30
2018-12-15T10:37:23.296Z,4.30
2018-12-15T10:39:52.583Z,4.30
2018-12-15T10:42:21.741Z,4.30
2018-12-15T10:44:50.908Z,4.20
2018-12-15T10:47:20.066Z,4.10
2018-12-15T10:49:51.185Z,4.10
2018-12-15T10:52:20.333Z,4.10
2018-12-15T10:54:49.523Z,4.20
2018-12-15T10:57:18.643Z,4.20
2018-12-15T10:59:47.903Z,4.30
2018-12-15T11:02:17.051Z,4.30
2018-12-15T11:04:46.175Z,4.40
2018-12-15T11:07:15.966Z,4.40
2018-12-15T11:09:46.089Z,4.40
2018-12-15T11:12:15.303Z,4.40
2018-12-15T11:14:44.427Z,4.40
2018-12-15T11:17:14.037Z,4.40
2018-12-15T11:19:43.454Z,4.50
2018-12-15T11:22:13.826Z,4.60
2018-12-15T11:24:42.955Z,4.60
2018-12-15T11:27:12.087Z,4.70
2018-12-15T11:29:41.449Z,4.70
2018-12-15T11:32:10.581Z,4.60
2018-12-15T11:34:39.711Z,4.70
2018-12-15T11:37:08.889Z,4.60
2018-12-15T11:39:38.037Z,4.60
2018-12-15T11:42:07.323Z,4.60
2018-12-15T11:44:36.484Z,4.60
2018-12-15T11:47:05.643Z,4.50
2018-12-15T11:49:34.967Z,4.40
2018-12-15T11:52:04.116Z,4.40
2018-12-15T11:54:33.267Z,4.40
2018-12-15T11:57:02.475Z,4.30
2018-12-15T11:59:31.760Z,4.30
2018-12-15T12:02:00.890Z,4.30
2018-12-15T12:04:30.035Z,4.30
2018-12-15T12:06:59.348Z,4.30
2018-12-15T12:09:28.541Z,4.40
2018-12-15T12:11:57.714Z,4.40
2018-12-15T12:14:26.965Z,4.20
2018-12-15T12:16:57.225Z,4.20
2018-12-15T12:19:26.431Z,4.20
2018-12-15T12:21:55.566Z,4.20
2018-12-15T12:24:25.775Z,4.10
2018-12-15T12:26:56.944Z,4.10
2018-12-15T12:29:26.027Z,4.10
2018-12-15T12:31:55.235Z,4.20
2018-12-15T12:34:24.388Z,4.20
2018-12-15T12:36:53.573Z,4.20
2018-12-15T12:39:23.807Z,4.10
2018-12-15T12:41:54.985Z,4.10
2018-12-15T12:44:24.282Z,4.10
2018-12-15T12:46:53.435Z,4.10
2018-12-15T12:49:22.738Z,4.10
2018-12-15T12:51:52.027Z,4.10
2018-12-15T12:54:21.167Z,4.10
2018-12-15T12:56:50.320Z,4.10
2018-12-15T12:59:19.499Z,4.10
2018-12-15T13:01:48.629Z,4.20
2018-12-15T13:04:17.767Z,4.00
2018-12-15T13:06:46.920Z,3.90
2018-12-15T13:09:16.173Z,3.90
2018-12-15T13:11:45.295Z,3.80
2018-12-15T13:14:14.463Z,3.80
2018-12-15T13:16:43.594Z,3.70
2018-12-15T13:19:12.709Z,3.60
2018-12-15T13:21:42.128Z,3.60
2018-12-15T13:24:11.342Z,3.60
2018-12-15T13:26:40.554Z,3.50
2018-12-15T13:29:09.745Z,3.50
2018-12-15T13:31:38.849Z,3.50
2018-12-15T13:34:08.116Z,3.50
2018-12-15T13:36:37.360Z,3.50
2018-12-15T13:39:06.683Z,3.60
2018-12-15T13:41:35.809Z,3.60
2018-12-15T13:44:05.075Z,3.60
2018-12-15T13:46:35.896Z,3.60
2018-12-15T13:49:05.073Z,3.50
2018-12-15T13:51:34.222Z,3.50
2018-12-15T13:54:03.487Z,3.50
2018-12-15T13:56:32.640Z,3.60
2018-12-15T13:59:01.799Z,3.60
2018-12-15T14:01:31.103Z,3.60
2018-12-15T14:04:00.263Z,3.60
2018-12-15T14:06:29.383Z,3.50
2018-12-15T14:08:58.596Z,3.50
2018-12-15T14:11:27.746Z,3.50
2018-12-15T14:13:56.893Z,3.40
2018-12-15T14:16:26.071Z,3.30
2018-12-15T14:18:55.313Z,3.30
2018-12-15T14:21:25.223Z,3.20
2018-12-15T14:23:54.309Z,3.20
2018-12-15T14:26:23.483Z,3.10
2018-12-15T14:28:52.885Z,3.00
2018-12-15T14:31:22.155Z,3.00
2018-12-15T14:33:51.257Z,2.90
2018-12-15T14:36:20.439Z,3.00
2018-12-15T14:38:49.748Z,3.00
2018-12-15T14:41:18.846Z,3.00
2018-12-15T14:43:48.070Z,2.90
2018-12-15T14:46:17.187Z,2.90
2018-12-15T14:48:47.430Z,2.80
2018-12-15T14:51:16.970Z,2.80
2018-12-15T14:53:46.109Z,2.70
2018-12-15T14:56:15.233Z,2.70
2018-12-15T14:58:58.939Z,2.70
2018-12-15T15:01:29.347Z,2.70
2018-12-15T15:03:58.855Z,2.70
2018-12-15T15:06:28.031Z,2.70
2018-12-15T15:08:57.145Z,2.70
2018-12-15T15:11:26.277Z,2.60
2018-12-15T15:13:55.473Z,2.50
2018-12-15T15:16:24.725Z,2.60
2018-12-15T15:18:53.921Z,2.60
2018-12-15T15:21:23.271Z,2.60
2018-12-15T15:23:53.571Z,2.70
2018-12-15T15:26:22.784Z,2.70
2018-12-15T15:28:53.047Z,2.70
2018-12-15T15:31:22.199Z,2.60
2018-12-15T15:33:51.345Z,2.50
2018-12-15T15:36:20.475Z,2.40
2018-12-15T15:38:49.674Z,2.40
2018-12-15T15:41:18.821Z,2.30
2018-12-15T15:43:47.935Z,2.30
2018-12-15T15:46:17.067Z,2.30
2018-12-15T15:48:46.189Z,2.20
2018-12-15T15:51:15.458Z,2.30
2018-12-15T15:53:44.612Z,2.30
2018-12-15T15:56:13.848Z,2.20
2018-12-15T15:58:42.992Z,2.30
2018-12-15T16:01:12.125Z,2.40
2018-12-15T16:03:41.251Z,2.30
2018-12-15T16:06:41.292Z,2.20
2018-12-15T16:09:10.513Z,2.20
2018-12-15T16:11:39.683Z,2.20
2018-12-15T16:14:09.087Z,2.20
2018-12-15T16:16:38.320Z,2.10
2018-12-15T16:19:07.440Z,2.10
2018-12-15T16:21:36.573Z,2.00
2018-12-15T16:24:05.721Z,1.90
2018-12-15T16:26:35.928Z,1.90
2018-12-15T16:29:05.191Z,1.90
2018-12-15T16:31:34.307Z,1.80
2018-12-15T16:34:03.482Z,1.90
2018-12-15T16:36:32.672Z,2.00
2018-12-15T16:39:01.826Z,2.00
2018-12-15T16:41:31.121Z,2.00
2018-12-15T16:44:00.275Z,2.10
2018-12-15T16:46:29.633Z,2.10
2018-12-15T16:48:58.829Z,2.10
2018-12-15T16:51:28.481Z,2.10
2018-12-15T16:53:57.603Z,2.10
2018-12-15T16:56:28.914Z,2.10
2018-12-15T16:58:58.103Z,2.00
2018-12-15T17:01:27.307Z,2.10
2018-12-15T17:03:56.515Z,2.00
2018-12-15T17:06:25.633Z,2.10
2018-12-15T17:08:54.891Z,2.10
2018-12-15T17:11:24.115Z,2.10
2018-12-15T17:13:53.249Z,2.10
2018-12-15T17:16:23.359Z,2.00
2018-12-15T17:18:52.497Z,2.00
2018-12-15T17:21:21.617Z,2.00
2018-12-15T17:23:50.733Z,2.00
2018-12-15T17:26:19.853Z,2.00
2018-12-15T17:28:49.013Z,2.00
2018-12-15T17:31:18.165Z,1.90
2018-12-15T17:33:47.315Z,2.00
2018-12-15T17:36:16.438Z,2.10
2018-12-15T17:38:45.545Z,2.10
2018-12-15T17:41:14.691Z,2.10
2018-12-15T17:43:43.855Z,2.00
2018-12-15T17:46:13.023Z,2.00
2018-12-15T17:48:42.191Z,2.00
2018-12-15T17:51:11.431Z,2.00
2018-12-15T17:53:40.743Z,1.90
2018-12-15T17:56:09.920Z,1.90
2018-12-15T17:58:39.116Z,2.00
2018-12-15T18:01:08.289Z,2.00
2018-12-15T18:03:37.534Z,2.00
2018-12-15T18:06:06.634Z,2.00
2018-12-15T18:08:35.854Z,1.90
2018-12-15T18:11:05.045Z,1.90
2018-12-15T18:13:34.232Z,2.00
2018-12-15T18:16:03.528Z,2.00
2018-12-15T18:18:32.851Z,2.10
2018-12-15T18:21:09.878Z,2.20
2018-12-15T18:23:39.537Z,2.20
2018-12-15T18:26:09.829Z,2.20
2018-12-15T18:28:39.139Z,2.20
2018-12-15T18:31:08.339Z,2.20
2018-12-15T18:33:37.487Z,2.20
2018-12-15T18:36:06.783Z,2.10
2018-12-15T18:38:35.931Z,2.10
2018-12-15T18:41:05.054Z,2.10
2018-12-15T18:43:34.260Z,2.00
2018-12-15T18:46:03.456Z,2.00
2018-12-15T18:48:32.609Z,2.00
2018-12-15T18:51:01.762Z,2.00
2018-12-15T18:53:30.893Z,2.00
2018-12-15T18:56:00.147Z,2.00
2018-12-15T18:58:29.288Z,2.00
2018-12-15T19:00:58.483Z,2.00
2018-12-15T19:03:27.597Z,2.00
2018-12-15T19:05:56.705Z,2.10
2018-12-15T19:08:25.855Z,2.00
2018-12-15T19:10:55.031Z,2.00
2018-12-15T19:13:24.155Z,2.00
2018-12-15T19:15:53.327Z,2.10
2018-12-15T19:18:22.552Z,2.00
2018-12-15T19:20:51.816Z,2.10
2018-12-15T19:23:21.213Z,2.10
2018-12-15T19:25:50.406Z,2.10
2018-12-15T19:28:19.789Z,2.20
2018-12-15T19:30:48.935Z,2.10
2018-12-15T19:33:18.092Z,2.20
2018-12-15T19:35:47.260Z,2.20
2018-12-15T19:38:16.451Z,2.20
2018-12-15T19:40:45.658Z,2.10
2018-12-15T19:43:14.819Z,2.20
2018-12-15T19:45:44.037Z,2.20
2018-12-15T19:48:13.191Z,2.30
2018-12-15T19:50:42.368Z,2.30
2018-12-15T19:53:11.519Z,2.20
2018-12-15T19:55:40.710Z,2.20
2018-12-15T19:58:10.065Z,2.20
2018-12-15T20:00:39.178Z,2.20
2018-12-15T20:03:08.385Z,2.20
2018-12-15T20:05:37.790Z,2.20
2018-12-15T20:08:06.937Z,2.40
2018-12-15T20:10:36.080Z,2.30
2018-12-15T20:13:05.231Z,2.30
2018-12-15T20:15:34.391Z,2.30
2018-12-15T20:18:03.544Z,2.30
2018-12-15T20:20:32.663Z,2.20
2018-12-15T20:23:01.816Z,2.20
2018-12-15T20:25:32.013Z,2.20
2018-12-15T20:28:01.233Z,2.30
2018-12-15T20:30:30.487Z,2.40
2018-12-15T20:32:59.859Z,2.40
2018-12-15T20:35:28.931Z,2.40
2018-12-15T20:37:58.067Z,2.30
2018-12-15T20:40:27.203Z,2.20
2018-12-15T20:42:56.359Z,2.20
2018-12-15T20:45:25.533Z,2.30
2018-12-15T20:47:54.680Z,2.30
2018-12-15T20:50:24.016Z,2.30
2018-12-15T20:52:53.183Z,2.30
2018-12-15T20:55:26.268Z,2.40
2018-12-15T20:57:55.428Z,2.30
2018-12-15T21:00:24.684Z,2.20
2018-12-15T21:02:53.848Z,2.20
2018-12-15T21:05:23.058Z,2.20
2018-12-15T21:07:52.289Z,2.20
2018-12-15T21:10:21.452Z,2.20
2018-12-15T21:12:50.624Z,2.20
2018-12-15T21:15:28.158Z,2.30
2018-12-15T21:17:57.410Z,2.40
2018-12-15T21:20:26.644Z,2.40
2018-12-15T21:22:55.899Z,2.30
2018-12-15T21:25:25.072Z,2.20
2018-12-15T21:27:54.314Z,2.20
2018-12-15T21:30:23.575Z,2.30
2018-12-15T21:32:52.684Z,2.20
2018-12-15T21:35:21.907Z,2.20
2018-12-15T21:37:51.096Z,2.20
2018-12-15T21:40:20.290Z,2.10
2018-12-15T21:42:49.420Z,2.10
2018-12-15T21:45:19.687Z,2.10
2018-12-15T21:47:48.851Z,2.10
2018-12-15T21:50:17.927Z,2.10
2018-12-15T21:52:47.060Z,2.20
2018-12-15T21:55:20.505Z,2.20
2018-12-15T21:57:49.615Z,2.20
2018-12-15T22:00:18.784Z,2.20
2018-12-15T22:02:48.086Z,2.20
2018-12-15T22:05:17.255Z,2.20
2018-12-15T22:07:46.451Z,2.10
2018-12-15T22:10:15.604Z,2.20
2018-12-15T22:12:44.780Z,2.20
2018-12-15T22:15:13.891Z,2.20
2018-12-15T22:17:43.041Z,2.10
2018-12-15T22:20:12.512Z,2.10
2018-12-15T22:22:41.742Z,2.20
2018-12-15T22:25:10.900Z,2.20
2018-12-15T22:27:40.062Z,2.20
2018-12-15T22:30:10.011Z,2.10
2018-12-15T22:32:39.143Z,2.20
2018-12-15T22:35:08.748Z,2.20
2018-12-15T22:37:37.942Z,2.10
2018-12-15T22:40:07.589Z,2.10
2018-12-15T22:42:36.782Z,2.20
2018-12-15T22:45:06.295Z,2.10
2018-12-15T22:47:35.696Z,2.00
2018-12-15T22:50:05.974Z,2.10
2018-12-15T22:52:35.149Z,2.00
2018-12-15T22:55:04.584Z,2.00
2018-12-15T22:57:33.802Z,1.90
2018-12-15T23:00:02.987Z,1.90
2018-12-15T23:02:33.137Z,1.80
2018-12-15T23:05:02.383Z,1.70
2018-12-15T23:07:31.591Z,1.60
2018-12-15T23:10:00.783Z,1.70
2018-12-15T23:12:29.953Z,1.70
2018-12-15T23:14:59.065Z,1.60
2018-12-15T23:17:28.338Z,1.70
2018-12-15T23:19:57.457Z,1.60
2018-12-15T23:22:26.621Z,1.70
2018-12-15T23:24:55.735Z,1.70
2018-12-15T23:27:25.911Z,1.70
2018-12-15T23:29:55.091Z,1.70
2018-12-15T23:32:24.269Z,1.70
2018-12-15T23:34:53.457Z,1.70
2018-12-15T23:37:22.603Z,1.70
2018-12-15T23:39:51.767Z,1.70
2018-12-15T23:42:21.005Z,1.60
2018-12-15T23:44:50.142Z,1.40
2018-12-15T23:47:19.280Z,1.40
2018-12-15T23:49:48.461Z,1.40
2018-12-15T23:52:23.228Z,1.50
2018-12-15T23:54:48.749Z,1.50
2018-12-15T23:57:17.904Z,1.40
2018-12-15T23:59:47.076Z,1.50
